• Join FlightAware (Why Join?)
  • Login
  • US Flag 
11:18PM EDT


 

Airport Tracker/Info


-or-


 

Live Flight TrackerFlight Track Log ✈ CTL62 ✈ 29-Apr-2013 ✈ KOSU - KPWK

Flight Track Log - Related Links

Times and Time Zones

All times are in EDT time to prevent confusion due to time zone crossing. See the CTL62 flight status page for this flight to view local times or setup timezone preferences in your user account.

Time Position Orientation Groundspeed Altitude Reporting Facility
EDT Latitude Longitude Course Direction KTS MPH feet Rate Location/Type
11:44PM 40.0864 -83.1214 300° West 117 135 2,500  Level Indianapolis Center
11:45PM 40.1014 -83.1478 307° West 123 142 3,400 1,020 Climbing Indianapolis Center
11:46PM 40.1136 -83.1672 309° West 123 142 4,000 780 Climbing Indianapolis Center
11:46PM 40.1197 -83.1853 294° West 128 147 4,200 180 Climbing Indianapolis Center
11:47PM 40.1347 -83.2111 307° West 131 151 4,200  Level Indianapolis Center
11:48PM 40.1597 -83.2636 302° West 152 175 4,200 -60 Level Indianapolis Center
11:49PM 40.1886 -83.3136 307° West 165 190 4,100 240 Descending Indianapolis Center
11:50PM 40.2921 -83.5365 300° West  Level FlightAware Approximate
11:50PM 40.2147 -83.3636 304° West 167 192 4,800  Level Indianapolis Center
11:51PM 40.2364 -83.4036 305° West 148 170 5,800 1,020 Climbing Indianapolis Center
11:52PM 40.2539 -83.4450 299° West 137 158 6,900 900 Climbing Indianapolis Center
11:53PM 40.2744 -83.4936 299° West 131 151 7,700 540 Climbing Indianapolis Center
11:54PM 40.2953 -83.5347 304° West 133 153 8,100 120 Climbing Indianapolis Center
11:55PM 40.3169 -83.5847 300° West 143 165 8,000  Descending Indianapolis Center
11:56PM 40.3389 -83.6392 298° West 157 181 8,200 60 Climbing Indianapolis Center
11:57PM 40.3614 -83.6925 299° West 164 189 8,200  Level Indianapolis Center
11:58PM 40.3894 -83.7411 307° West 167 192 8,200  Level Indianapolis Center
11:59PM 40.4153 -83.7903 305° West 164 189 8,200  Level Indianapolis Center
12:00AM 40.4408 -83.8436 302° West 168 193 8,200  Level Indianapolis Center
12:01AM 40.4656 -83.8947 302° West 167 192 8,200  Level Indianapolis Center
12:02AM 40.4908 -83.9478 302° West 168 193 8,200 -60 Level Indianapolis Center
12:03AM 40.5186 -83.9981 306° West 169 194 8,100 -60 Descending Indianapolis Center
12:04AM 40.5456 -84.0489 305° West 170 196 8,100 -60 Level Indianapolis Center
12:05AM 40.5703 -84.1031 301° West 170 196 8,000  Descending Indianapolis Center
12:06AM 40.5956 -84.1550 303° West 168 193 8,100  Climbing Indianapolis Center
12:07AM 40.6186 -84.2081 300° West 167 192 8,100  Level Indianapolis Center
12:08AM 40.6425 -84.2606 301° West 165 190 8,100  Level Indianapolis Center
12:09AM 40.6672 -84.3131 302° West 166 191 8,100  Level Indianapolis Center
12:10AM 40.6939 -84.3625 305° West 166 191 8,100  Level Indianapolis Center
12:10AM 40.7056 -84.3822 308° West 164 189 8,100  Level Chicago Center
12:11AM 40.7319 -84.4311 305° West 164 189 8,100  Level Chicago Center
12:12AM 40.7569 -84.4819 303° West 165 190 8,100  Level Chicago Center
12:13AM 40.7847 -84.5283 308° West 163 188 8,100  Level Chicago Center
12:14AM 40.8114 -84.5794 305° West 166 191 8,100 -60 Level Chicago Center
12:15AM 40.8364 -84.6317 302° West 168 193 8,000  Descending Chicago Center
12:16AM 40.8642 -84.6808 307° West 168 193 8,100  Climbing Chicago Center
12:17AM 40.8922 -84.7292 308° West 167 192 8,100  Level Chicago Center
12:18AM 40.9150 -84.7822 300° West 166 191 8,100  Level Chicago Center
12:19AM 40.9336 -84.8397 293° West 168 193 8,100  Level Chicago Center
12:20AM 40.9525 -84.8956 294° West 168 193 8,100 -60 Level Chicago Center
12:22AM 40.9714 -84.9525 294° West 168 193 8,000  Descending Chicago Center
12:23AM 40.9922 -85.0081 296° West 169 194 8,100  Climbing Chicago Center
12:24AM 41.0144 -85.0639 298° West 170 196 8,100  Level Chicago Center
12:25AM 41.0364 -85.1175 299° West 167 192 8,100  Level Chicago Center
12:26AM 41.0583 -85.1703 299° West 165 190 8,100  Level Chicago Center
12:27AM 41.0783 -85.2264 295° West 167 192 8,100 -60 Level Chicago Center
12:28AM 41.1006 -85.2828 298° West 170 196 8,000 -60 Descending Chicago Center
12:29AM 41.1244 -85.3344 302° West 167 192 8,000  Level Chicago Center
12:30AM 41.1467 -85.3881 299° West 166 191 8,100  Climbing Chicago Center
12:31AM 41.1678 -85.4428 297° West 166 191 8,100  Level Chicago Center
12:32AM 41.1864 -85.4986 294° West 166 191 8,100  Level Chicago Center
12:33AM 41.2069 -85.5522 297° West 164 189 8,100  Level Chicago Center
12:34AM 41.2269 -85.6053 297° West 162 186 8,100  Level Chicago Center
12:35AM 41.2481 -85.6597 297° West 165 190 8,100  Level Chicago Center
12:36AM 41.2700 -85.7119 299° West 163 188 8,100  Level Chicago Center
12:37AM 41.2933 -85.7622 302° West 160 184 8,100  Level Chicago Center
12:38AM 41.3200 -85.8094 307° West 160 184 8,100  Level Chicago Center
12:39AM 41.3564 -85.8447 324° Northwest 161 185 8,100  Level Chicago Center
12:40AM 41.3739 -85.8981 294° West 155 178 8,100  Level Chicago Center
12:41AM 41.3969 -85.9478 302° West 156 180 8,100  Level Chicago Center
12:42AM 41.4175 -85.9997 298° West 158 182 8,100  Level Chicago Center
12:43AM 41.4378 -86.0517 298° West 158 182 8,100  Level Chicago Center
12:44AM 41.4589 -86.1042 298° West 160 184 8,100  Level Chicago Center
12:45AM 41.4797 -86.1558 298° West 158 182 8,100  Level Chicago Center
12:46AM 41.5006 -86.2078 298° West 159 183 8,100  Level Chicago Center
12:47AM 41.5233 -86.2586 301° West 160 184 8,100  Level Chicago Center
12:48AM 41.5436 -86.3089 298° West 156 180 8,100  Level Chicago Center
12:49AM 41.5644 -86.3603 298° West 157 181 8,100  Level Chicago Center
12:50AM 41.5842 -86.4114 297° West 155 178 8,100 -60 Level Chicago Center
12:51AM 41.6044 -86.4622 298° West 155 178 8,000  Descending Chicago Center
12:52AM 41.6253 -86.5122 299° West 156 180 8,100  Climbing Chicago Center
12:53AM 41.6494 -86.5742 298° West 155 178 8,100  Level Chicago Center
12:54AM 41.6672 -86.6272 294° West 158 182 8,100  Level Chicago Center
12:55AM 41.6861 -86.6778 297° West 155 178 8,200  Climbing Chicago Center
12:56AM 41.7053 -86.7292 297° West 154 177 8,100 -60 Descending Chicago Center
12:57AM 41.7239 -86.7800 296° West 154 177 8,100  Level Chicago Center
12:58AM 41.7433 -86.8319 297° West 156 180 8,100  Level Chicago Center
12:59AM 41.7622 -86.8839 296° West 157 181 8,100  Level Chicago Center
01:00AM 41.7800 -86.9342 295° West 150 173 8,100  Level Chicago Center
01:01AM 41.7997 -86.9842 298° West 151 174 8,100  Level Chicago Center
01:02AM 41.8189 -87.0347 297° West 152 175 8,100 -60 Level Chicago Center
01:03AM 41.8378 -87.0831 298° West 149 171 8,000 -120 Descending Chicago Center
01:04AM 41.8547 -87.1336 294° West 149 171 7,900 -60 Descending Chicago Center
01:05AM 41.8719 -87.1828 295° West 147 169 7,900 -60 Level Chicago Center
01:06AM 41.8906 -87.2317 297° West 147 169 7,800 -300 Descending Chicago Center
01:07AM 41.9111 -87.2853 297° West 158 182 7,300 -660 Descending Chicago Center
01:08AM 41.9317 -87.3433 295° West 170 196 6,500 -780 Descending Chicago Center
01:09AM 41.9531 -87.4000 297° West 172 198 5,800 -780 Descending Chicago Center
01:09AM 41.9667 -87.4333 299° West 170 196 5,400 -900 Descending Chicago TRACON
01:10AM 41.9833 -87.4833 294° West 171 197 4,600 -840 Descending Chicago TRACON
01:11AM 42.0167 -87.5500 304° West 183 211 3,600 -780 Descending Chicago TRACON
01:12AM 42.0333 -87.6167 289° West 183 211 3,000 -360 Descending Chicago TRACON
01:13AM 42.0667 -87.6500 323° Northwest 178 205 3,000  Level Chicago TRACON
01:14AM 42.1167 -87.6833 334° Northwest 174 200 3,000  Level Chicago TRACON
01:15AM 42.1317 -87.7111 306° West 179 206 3,000 -120 Level Chicago Center
01:16AM 42.1475 -87.7503 299° West 174 200 2,900 -120 Descending Chicago Center